Time;durP1;ratioP1;P1;durP2;ratioP2;P2;SDS_P1;SDS_P2;PMS_P1;PMS_P2;Temp;Humidity;BMP_temperature;BMP_pressure;BME280_temperature;BME280_humidity;BME280_pressure;Samples;Min_cycle;Max_cycle;Signal;HPM_P1;HPM_P2
2024/03/08 00:00:18;;;;;;;106.03;74.88;;;18.50;75.10;;;;;;5033503;28;20486;-64
2024/03/08 00:02:45;;;;;;;108.43;73.57;;;18.50;75.10;;;;;;5032941;28;20156;-64
2024/03/08 00:05:12;;;;;;;100.30;72.53;;;18.50;75.10;;;;;;5033535;28;20030;-63
2024/03/08 00:07:39;;;;;;;105.30;73.85;;;18.50;75.00;;;;;;5033677;28;20026;-63
2024/03/08 00:10:12;;;;;;;101.22;72.80;;;18.50;75.00;;;;;;5033180;28;20025;-64
2024/03/08 00:12:42;;;;;;;102.10;71.28;;;18.50;74.90;;;;;;5032982;28;20083;-64
2024/03/08 00:15:13;;;;;;;98.95;70.38;;;18.50;74.90;;;;;;5033107;28;20109;-63
2024/03/08 00:17:40;;;;;;;99.00;70.95;;;18.50;74.80;;;;;;5033720;28;20041;-64
2024/03/08 00:20:08;;;;;;;98.13;69.22;;;18.60;74.80;;;;;;5033069;28;20029;-64
2024/03/08 00:22:38;;;;;;;100.35;69.65;;;18.60;74.80;;;;;;5032694;28;20108;-63
2024/03/08 00:25:04;;;;;;;97.43;69.35;;;18.50;74.80;;;;;;5033314;28;20029;-64
2024/03/08 00:27:30;;;;;;;96.63;69.85;;;18.50;74.80;;;;;;5033043;28;20033;-64
2024/03/08 00:29:57;;;;;;;92.55;66.10;;;18.60;74.80;;;;;;5032826;28;20036;-64
2024/03/08 00:32:24;;;;;;;91.93;67.00;;;18.50;74.80;;;;;;5024771;28;20075;-64
2024/03/08 00:34:54;;;;;;;95.78;67.10;;;18.60;74.90;;;;;;5033279;28;20030;-64
2024/03/08 00:37:20;;;;;;;96.53;66.43;;;18.50;74.90;;;;;;5032720;28;20026;-64
2024/03/08 00:39:45;;;;;;;91.68;65.82;;;18.50;74.90;;;;;;5033080;28;20029;-64
2024/03/08 00:42:12;;;;;;;89.78;64.78;;;18.50;74.90;;;;;;5032269;28;20021;-64
2024/03/08 00:44:37;;;;;;;92.90;65.03;;;18.50;74.90;;;;;;5033334;28;20124;-64
2024/03/08 00:47:04;;;;;;;88.72;63.10;;;18.50;75.00;;;;;;5033654;28;20104;-64
2024/03/08 00:49:29;;;;;;;89.00;64.50;;;18.50;75.00;;;;;;5014194;28;20572;-64
2024/03/08 00:51:55;;;;;;;91.22;60.38;;;18.50;75.30;;;;;;5032796;28;20065;-64
2024/03/08 00:54:20;;;;;;;88.05;63.45;;;18.50;75.60;;;;;;5032806;28;20021;-64
2024/03/08 00:56:46;;;;;;;85.18;60.33;;;18.50;75.40;;;;;;5033136;28;20038;-63
2024/03/08 00:59:14;;;;;;;88.75;60.78;;;18.50;75.40;;;;;;5034337;28;20503;-63
2024/03/08 01:01:40;;;;;;;90.47;60.65;;;18.50;75.30;;;;;;5035434;28;20409;-64
2024/03/08 01:04:07;;;;;;;102.65;59.85;;;18.50;75.30;;;;;;5039246;28;20021;-63
2024/03/08 01:06:33;;;;;;;89.63;59.33;;;18.50;75.70;;;;;;5037398;28;20026;-63
2024/03/08 01:08:59;;;;;;;93.95;60.40;;;18.50;76.00;;;;;;5034249;28;20029;-61
2024/03/08 01:11:25;;;;;;;90.78;58.72;;;18.50;75.90;;;;;;5032861;28;20645;-62
2024/03/08 01:13:50;;;;;;;91.22;57.63;;;18.50;75.80;;;;;;5034061;28;20033;-63
2024/03/08 01:16:21;;;;;;;87.40;59.63;;;18.50;75.90;;;;;;5040181;28;20036;-63
2024/03/08 01:18:47;;;;;;;82.53;57.60;;;18.50;76.00;;;;;;5032866;28;20021;-62
2024/03/08 01:21:12;;;;;;;82.55;57.53;;;18.50;76.00;;;;;;5031457;28;20124;-62
2024/03/08 01:23:38;;;;;;;79.45;54.20;;;18.50;76.00;;;;;;5032434;28;20497;-63
2024/03/08 01:26:04;;;;;;;82.00;57.20;;;18.50;75.90;;;;;;5032172;28;20029;-64
2024/03/08 01:28:30;;;;;;;80.18;55.78;;;18.50;75.90;;;;;;5032221;28;20025;-64
2024/03/08 01:30:56;;;;;;;83.60;54.08;;;18.50;75.90;;;;;;5031561;28;20060;-64
2024/03/08 01:33:26;;;;;;;79.38;55.20;;;18.50;75.90;;;;;;5046903;23;20493;-67
2024/03/08 01:35:54;;;;;;;80.93;53.80;;;18.50;75.90;;;;;;5020424;28;20075;-67
2024/03/08 01:38:23;;;;;;;77.30;53.92;;;18.50;75.80;;;;;;5023414;28;20025;-67
2024/03/08 01:40:51;;;;;;;80.57;54.70;;;18.60;75.80;;;;;;5031203;28;20029;-66
2024/03/08 01:43:26;;;;;;;75.63;52.38;;;18.60;75.70;;;;;;5023407;28;20079;-66
2024/03/08 01:45:53;;;;;;;75.78;52.53;;;18.60;75.70;;;;;;5032047;28;20051;-66
2024/03/08 01:48:21;;;;;;;77.43;53.30;;;18.60;75.70;;;;;;5031531;28;20026;-66
2024/03/08 01:50:47;;;;;;;74.30;51.97;;;18.60;75.60;;;;;;5026569;28;20022;-66
2024/03/08 01:53:15;;;;;;;78.38;53.85;;;18.60;75.50;;;;;;5031230;28;20445;-67
2024/03/08 01:55:41;;;;;;;75.28;50.58;;;18.60;75.40;;;;;;5031549;28;20029;-67
2024/03/08 01:58:09;;;;;;;70.85;49.78;;;18.60;75.40;;;;;;5031768;28;20060;-67
2024/03/08 02:00:36;;;;;;;74.57;50.47;;;18.60;75.40;;;;;;5030706;28;20079;-68
2024/03/08 02:03:02;;;;;;;72.22;50.78;;;18.70;75.50;;;;;;5013205;28;20029;-67
2024/03/08 02:05:28;;;;;;;71.40;49.08;;;18.60;75.50;;;;;;5031496;28;20085;-67
2024/03/08 02:07:55;;;;;;;67.60;48.33;;;18.60;75.40;;;;;;5009716;28;20028;-67
2024/03/08 02:10:22;;;;;;;67.68;48.42;;;18.70;75.40;;;;;;5031006;28;20032;-67
2024/03/08 02:12:48;;;;;;;70.75;50.45;;;18.70;75.40;;;;;;5030684;28;20041;-67
2024/03/08 02:15:14;;;;;;;68.55;46.88;;;18.60;75.40;;;;;;5031293;28;20022;-67
2024/03/08 02:17:41;;;;;;;69.53;48.28;;;18.60;75.40;;;;;;5031157;28;20060;-67
2024/03/08 02:20:09;;;;;;;70.55;48.75;;;18.60;75.50;;;;;;5030936;28;20041;-68
2024/03/08 02:22:34;;;;;;;66.10;47.55;;;18.60;75.50;;;;;;5030205;28;20025;-67
2024/03/08 02:25:02;;;;;;;64.25;47.08;;;18.60;75.50;;;;;;5031132;28;20148;-66
2024/03/08 02:27:29;;;;;;;65.07;46.42;;;18.60;75.50;;;;;;5031195;28;20159;-67
2024/03/08 02:29:56;;;;;;;62.75;45.97;;;18.60;75.60;;;;;;5030901;28;20030;-67
2024/03/08 02:32:23;;;;;;;60.72;43.85;;;18.60;75.60;;;;;;5030148;28;20021;-67
2024/03/08 02:34:49;;;;;;;61.85;45.08;;;18.60;75.70;;;;;;5030925;28;20041;-66
2024/03/08 02:37:15;;;;;;;61.60;45.35;;;18.60;75.70;;;;;;5030766;28;20028;-67
2024/03/08 02:39:41;;;;;;;66.60;45.40;;;18.60;75.80;;;;;;5030996;28;20599;-67
2024/03/08 02:42:07;;;;;;;66.47;45.40;;;18.60;75.80;;;;;;5030027;28;20037;-67
2024/03/08 02:44:33;;;;;;;59.08;42.83;;;18.60;75.80;;;;;;5030686;28;20032;-66
2024/03/08 02:46:59;;;;;;;61.03;44.72;;;18.50;75.80;;;;;;5030855;28;20021;-66
2024/03/08 02:49:26;;;;;;;57.47;42.20;;;18.50;75.90;;;;;;5030626;28;20033;-66
2024/03/08 02:51:52;;;;;;;61.05;42.17;;;18.50;75.90;;;;;;5030306;28;20033;-66
2024/03/08 02:54:19;;;;;;;64.90;41.53;;;18.50;76.00;;;;;;5030615;28;20440;-66
2024/03/08 02:56:46;;;;;;;58.05;41.50;;;18.50;76.00;;;;;;5030408;28;20037;-65
2024/03/08 02:59:12;;;;;;;57.38;41.30;;;18.50;76.20;;;;;;5030592;28;20033;-65
2024/03/08 03:01:39;;;;;;;59.40;41.28;;;18.50;76.40;;;;;;5029987;28;20022;-66
2024/03/08 03:04:04;;;;;;;57.45;41.17;;;18.50;76.50;;;;;;5030290;28;20100;-64
2024/03/08 03:06:31;;;;;;;55.00;39.88;;;18.50;76.50;;;;;;5030490;28;20545;-65
2024/03/08 03:08:57;;;;;;;58.10;41.58;;;18.60;76.50;;;;;;5030695;28;20116;-64
2024/03/08 03:11:23;;;;;;;54.58;39.33;;;18.60;76.50;;;;;;5021924;28;20554;-65
2024/03/08 03:13:48;;;;;;;56.40;40.15;;;18.60;76.50;;;;;;5034554;28;20033;-66
2024/03/08 03:16:20;;;;;;;58.70;40.40;;;18.60;76.60;;;;;;5034474;28;20025;-66
2024/03/08 03:18:46;;;;;;;55.90;39.50;;;18.60;76.70;;;;;;5034166;28;20037;-67
2024/03/08 03:21:13;;;;;;;56.22;39.95;;;18.60;76.60;;;;;;5033874;28;20513;-66
2024/03/08 03:23:42;;;;;;;54.40;38.65;;;18.60;76.60;;;;;;5034444;28;20071;-66
2024/03/08 03:26:10;;;;;;;51.50;37.22;;;18.60;76.50;;;;;;5034385;28;20025;-66
2024/03/08 03:28:38;;;;;;;52.17;39.15;;;18.60;76.50;;;;;;5034129;28;20079;-67
2024/03/08 03:31:03;;;;;;;53.70;38.13;;;18.70;76.50;;;;;;5033419;28;20041;-66
2024/03/08 03:33:29;;;;;;;50.75;36.15;;;18.60;76.40;;;;;;5034119;28;20029;-67
2024/03/08 03:35:55;;;;;;;51.58;37.80;;;18.60;76.40;;;;;;5034347;28;20160;-67
2024/03/08 03:38:23;;;;;;;50.45;36.25;;;18.60;76.30;;;;;;5034148;28;20018;-66
2024/03/08 03:40:52;;;;;;;53.35;37.35;;;18.60;76.40;;;;;;5033365;28;20017;-67
2024/03/08 03:43:17;;;;;;;49.80;36.17;;;18.70;76.40;;;;;;5033866;28;20040;-67
2024/03/08 03:45:43;;;;;;;49.20;35.55;;;18.60;76.40;;;;;;5033851;28;20025;-66
2024/03/08 03:48:09;;;;;;;52.10;36.20;;;18.70;76.40;;;;;;5033924;28;20024;-67
2024/03/08 03:50:35;;;;;;;55.20;36.45;;;18.60;76.50;;;;;;5033431;28;20033;-67
2024/03/08 03:53:02;;;;;;;48.70;35.15;;;18.60;76.70;;;;;;5033573;28;20026;-67
2024/03/08 03:55:28;;;;;;;49.75;35.13;;;18.60;76.70;;;;;;5034018;28;20037;-66
2024/03/08 03:57:54;;;;;;;51.88;34.00;;;18.60;76.70;;;;;;5033740;28;20027;-66
2024/03/08 04:00:19;;;;;;;51.35;35.35;;;18.60;76.90;;;;;;5033295;28;20100;-67
2024/03/08 04:02:46;;;;;;;50.92;35.35;;;18.60;76.90;;;;;;5027399;28;20022;-66
2024/03/08 04:05:12;;;;;;;50.17;33.15;;;18.60;76.80;;;;;;5033428;28;20493;-67
2024/03/08 04:07:38;;;;;;;53.45;34.60;;;18.60;76.80;;;;;;5028247;28;20025;-67
2024/03/08 04:10:06;;;;;;;45.00;32.53;;;18.60;76.80;;;;;;5033461;28;20048;-67
2024/03/08 04:12:35;;;;;;;69.28;33.10;;;18.60;76.80;;;;;;5033066;28;20406;-66
2024/03/08 04:15:01;;;;;;;44.30;30.80;;;18.60;76.70;;;;;;5033355;28;20021;-66
2024/03/08 04:17:27;;;;;;;46.10;32.85;;;18.60;76.80;;;;;;5033424;28;20056;-66
2024/03/08 04:19:52;;;;;;;43.58;30.80;;;18.60;76.80;;;;;;5031832;28;20048;-66
2024/03/08 04:22:18;;;;;;;45.92;31.75;;;18.60;76.90;;;;;;5032389;28;20120;-65
2024/03/08 04:24:45;;;;;;;44.25;31.48;;;18.60;76.80;;;;;;5033740;28;20436;-66
2024/03/08 04:27:11;;;;;;;50.20;32.40;;;18.50;76.90;;;;;;5033226;28;20036;-65
2024/03/08 04:29:37;;;;;;;41.03;30.52;;;18.50;77.00;;;;;;5033415;28;20022;-65
2024/03/08 04:32:04;;;;;;;46.58;30.15;;;18.50;77.10;;;;;;5031952;28;20359;-65
2024/03/08 04:34:31;;;;;;;43.85;30.92;;;18.50;77.20;;;;;;5031831;28;20037;-67
2024/03/08 04:37:04;;;;;;;44.38;29.90;;;18.50;77.10;;;;;;5032997;28;20533;-66
2024/03/08 04:39:31;;;;;;;45.28;29.65;;;18.50;77.20;;;;;;5025751;28;20033;-68
2024/03/08 04:42:06;;;;;;;44.03;31.40;;;18.60;77.20;;;;;;5032483;28;20455;-67
2024/03/08 04:44:33;;;;;;;41.65;27.58;;;18.60;77.20;;;;;;5025967;28;20422;-66
2024/03/08 04:47:00;;;;;;;43.63;29.48;;;18.60;77.20;;;;;;5032797;28;20397;-65
2024/03/08 04:49:25;;;;;;;41.25;29.23;;;18.60;77.20;;;;;;5028535;28;20021;-66
2024/03/08 04:51:51;;;;;;;39.20;28.42;;;18.60;77.20;;;;;;5032312;28;20033;-67
2024/03/08 04:54:16;;;;;;;44.40;29.60;;;18.60;77.20;;;;;;5032783;28;20021;-66
2024/03/08 04:56:42;;;;;;;39.50;27.25;;;18.60;77.10;;;;;;5032657;28;20022;-65
2024/03/08 04:59:08;;;;;;;46.25;29.70;;;18.60;77.10;;;;;;5032451;28;20061;-64
2024/03/08 05:01:37;;;;;;;43.65;28.00;;;18.60;77.20;;;;;;5032159;28;20013;-66
2024/03/08 05:04:03;;;;;;;41.22;27.88;;;18.70;77.30;;;;;;5032717;28;20104;-65
2024/03/08 05:06:30;;;;;;;44.08;27.25;;;18.70;77.30;;;;;;5032525;28;20024;-66
2024/03/08 05:08:56;;;;;;;38.30;27.00;;;18.70;77.30;;;;;;5032798;28;20071;-66
2024/03/08 05:11:21;;;;;;;47.90;27.30;;;18.70;77.30;;;;;;5031446;28;20420;-67
2024/03/08 05:13:47;;;;;;;39.78;27.52;;;18.70;77.30;;;;;;5032157;28;20503;-67
2024/03/08 05:16:15;;;;;;;40.00;25.38;;;18.70;77.50;;;;;;5032289;28;20022;-66
2024/03/08 05:18:42;;;;;;;38.72;25.27;;;18.70;77.50;;;;;;5032534;28;20087;-67
2024/03/08 05:21:09;;;;;;;35.38;24.85;;;18.60;77.40;;;;;;5029982;28;20018;-65
2024/03/08 05:23:35;;;;;;;38.70;26.73;;;18.60;77.30;;;;;;5032238;28;20029;-67
2024/03/08 05:26:01;;;;;;;39.50;25.27;;;18.60;77.20;;;;;;5032066;28;20029;-66
2024/03/08 05:28:26;;;;;;;41.60;25.10;;;18.70;77.00;;;;;;5031930;28;20024;-65
2024/03/08 05:30:52;;;;;;;40.03;25.02;;;18.60;77.00;;;;;;5027956;28;20057;-66
2024/03/08 05:33:19;;;;;;;36.20;24.27;;;18.60;77.10;;;;;;5031230;28;20041;-65
2024/03/08 05:35:44;;;;;;;35.60;24.30;;;18.60;77.10;;;;;;5031324;28;20032;-64
2024/03/08 05:38:12;;;;;;;41.40;24.27;;;18.60;76.90;;;;;;5025472;28;20022;-65
2024/03/08 05:40:38;;;;;;;33.80;24.20;;;18.60;76.90;;;;;;5030826;28;20025;-65
2024/03/08 05:43:04;;;;;;;34.72;24.40;;;18.60;76.80;;;;;;5030159;28;20018;-66
2024/03/08 05:45:29;;;;;;;33.28;24.23;;;18.60;76.80;;;;;;5030458;28;20029;-65
2024/03/08 05:47:55;;;;;;;35.88;23.90;;;18.60;76.80;;;;;;5030006;28;20056;-66
2024/03/08 05:50:20;;;;;;;35.08;22.85;;;18.60;76.80;;;;;;5028328;28;20037;-65
2024/03/08 05:52:47;;;;;;;31.73;21.83;;;18.60;76.70;;;;;;5029882;28;20084;-66
2024/03/08 05:55:14;;;;;;;32.60;24.00;;;18.50;76.80;;;;;;5024443;28;20029;-64
2024/03/08 05:57:40;;;;;;;32.40;22.73;;;18.50;76.40;;;;;;5028632;28;20176;-66
2024/03/08 06:00:06;;;;;;;43.78;24.88;;;18.50;76.40;;;;;;5028033;28;20421;-65
2024/03/08 06:02:33;;;;;;;42.10;22.73;;;18.50;76.90;;;;;;5029795;28;20022;-66
2024/03/08 06:04:58;;;;;;;35.47;22.48;;;18.60;77.00;;;;;;5030450;28;20108;-63
2024/03/08 06:07:24;;;;;;;39.30;23.98;;;18.60;77.10;;;;;;5023056;28;20542;-65
2024/03/08 06:09:49;;;;;;;42.85;23.92;;;18.60;77.10;;;;;;5030253;28;20022;-64
2024/03/08 06:12:19;;;;;;;31.40;23.40;;;18.60;76.90;;;;;;5029237;28;20076;-65
2024/03/08 06:14:45;;;;;;;26.50;22.88;;;17.00;47.10;;;;;;5030245;28;20388;-64
2024/03/08 06:17:11;;;;;;;30.73;24.38;;;14.00;47.00;;;;;;5030111;28;20112;-62
2024/03/08 06:19:37;;;;;;;32.38;23.27;;;12.10;49.70;;;;;;5030526;28;20069;-64
2024/03/08 06:22:05;;;;;;;29.98;23.38;;;;;;;;;;5029431;28;20033;-59
2024/03/08 06:24:32;;;;;;;33.65;24.20;;;;;;;;;;5029860;28;20083;-64
2024/03/08 06:26:58;;;;;;;32.95;23.90;;;;;;;;;;5030223;28;20048;-62
2024/03/08 06:29:24;;;;;;;32.33;23.20;;;;;;;;;;5029843;28;20477;-62
2024/03/08 06:31:50;;;;;;;30.95;21.23;;;;;;;;;;5029540;28;20147;-60
2024/03/08 06:34:17;;;;;;;44.72;24.92;;;;;;;;;;5029607;28;20041;-63
2024/03/08 06:36:44;;;;;;;38.75;24.10;;;;;;;;;;5029629;28;20025;-65
2024/03/08 06:39:10;;;;;;;35.08;23.38;;;;;;;;;;5029192;28;20025;-62
2024/03/08 06:41:38;;;;;;;36.22;22.13;;;13.70;76.50;;;;;;5028854;28;20436;-63
2024/03/08 06:44:04;;;;;;;30.90;21.48;;;14.00;76.70;;;;;;5029827;28;20021;-65
2024/03/08 06:46:29;;;;;;;37.10;20.80;;;14.30;76.30;;;;;;5028749;28;20013;-64
2024/03/08 06:48:55;;;;;;;41.25;22.08;;;14.60;76.00;;;;;;5025123;28;20443;-64
2024/03/08 06:51:21;;;;;;;31.10;21.70;;;14.90;76.00;;;;;;5028447;28;20030;-62
2024/03/08 06:53:49;;;;;;;31.63;20.52;;;15.20;76.60;;;;;;5029045;28;20055;-65
2024/03/08 06:56:15;;;;;;;30.52;20.58;;;15.40;77.00;;;;;;5029523;28;20030;-66
2024/03/08 06:58:40;;;;;;;34.05;20.35;;;15.60;77.10;;;;;;5027414;28;20078;-61
2024/03/08 07:01:07;;;;;;;37.83;20.95;;;15.70;77.00;;;;;;5028075;28;20029;-64
2024/03/08 07:03:33;;;;;;;36.92;19.90;;;15.90;76.90;;;;;;5028621;28;20099;-64
2024/03/08 07:05:59;;;;;;;32.58;20.60;;;16.00;76.70;;;;;;5027032;28;20021;-64
2024/03/08 07:08:26;;;;;;;41.10;19.63;;;16.20;76.60;;;;;;5028072;28;20483;-63
2024/03/08 07:10:53;;;;;;;31.05;19.10;;;16.20;76.30;;;;;;5021739;28;20064;-64
2024/03/08 07:13:18;;;;;;;32.95;18.98;;;16.40;76.00;;;;;;5027480;28;20112;-64
2024/03/08 07:15:45;;;;;;;35.10;21.00;;;16.40;75.70;;;;;;5029048;28;20113;-64
2024/03/08 07:18:14;;;;;;;32.83;24.58;;;16.50;75.40;;;;;;5029425;28;20080;-63
2024/03/08 07:20:40;;;;;;;33.22;23.88;;;;;;;;;;5029294;28;20118;-62
2024/03/08 07:23:06;;;;;;;34.20;24.52;;;11.80;48.40;;;;;;5028962;28;20029;-61
2024/03/08 07:25:31;;;;;;;41.13;25.92;;;10.50;52.90;;;;;;5029500;28;20017;-60
2024/03/08 07:27:57;;;;;;;33.90;25.15;;;9.70;53.20;;;;;;5029557;28;20025;-63
2024/03/08 07:33:11;;;;;;;34.42;25.15;;;8.50;55.60;;;;;;5029174;28;20064;-64
2024/03/08 07:35:38;;;;;;;37.60;24.90;;;8.20;57.20;;;;;;5030001;28;20101;-65
2024/03/08 07:38:08;;;;;;;41.83;25.80;;;8.00;57.50;;;;;;5029584;28;20025;-64
2024/03/08 07:40:41;;;;;;;34.70;24.75;;;7.80;57.80;;;;;;5028808;28;20047;-66
2024/03/08 07:43:08;;;;;;;34.20;24.20;;;8.00;58.10;;;;;;5029001;28;20033;-63
2024/03/08 07:45:33;;;;;;;33.97;24.33;;;8.70;60.50;;;;;;5029597;28;20024;-63
2024/03/08 07:47:59;;;;;;;32.47;22.92;;;9.60;62.00;;;;;;5028835;28;20029;-61
2024/03/08 07:50:24;;;;;;;32.17;21.50;;;10.40;61.90;;;;;;5028920;28;20029;-60
2024/03/08 07:52:50;;;;;;;34.20;22.00;;;11.00;60.30;;;;;;5028553;28;20100;-62
2024/03/08 07:55:16;;;;;;;30.35;20.85;;;11.60;58.50;;;;;;5028527;28;20064;-65
2024/03/08 07:57:42;;;;;;;36.03;20.05;;;12.00;58.40;;;;;;5029764;28;20033;-64
2024/03/08 08:00:09;;;;;;;30.67;19.45;;;12.50;59.20;;;;;;5030556;28;20120;-63
2024/03/08 08:02:35;;;;;;;27.90;18.40;;;12.80;60.60;;;;;;5027306;28;20044;-64
2024/03/08 08:05:01;;;;;;;30.33;17.58;;;13.00;62.00;;;;;;5030754;28;20018;-63
2024/03/08 08:07:27;;;;;;;25.67;17.15;;;13.30;62.70;;;;;;5012184;28;20589;-64
2024/03/08 08:09:53;;;;;;;27.15;15.50;;;13.50;63.00;;;;;;5026694;28;20037;-65
2024/03/08 08:12:19;;;;;;;33.45;14.48;;;13.70;63.30;;;;;;5028743;28;20021;-65
2024/03/08 08:14:44;;;;;;;19.20;13.35;;;14.00;63.50;;;;;;5029782;28;20041;-65
2024/03/08 08:17:11;;;;;;;18.95;13.45;;;14.20;63.70;;;;;;5031744;28;20400;-66
2024/03/08 08:19:38;;;;;;;19.23;12.05;;;14.40;63.70;;;;;;5031073;28;20683;-65
2024/03/08 08:22:04;;;;;;;21.52;12.48;;;14.50;63.70;;;;;;5030921;28;20040;-65
2024/03/08 08:24:33;;;;;;;18.60;11.55;;;14.70;63.60;;;;;;5033402;28;20048;-64
2024/03/08 08:26:59;;;;;;;17.88;12.25;;;14.80;63.80;;;;;;5033634;28;20018;-66
2024/03/08 08:29:25;;;;;;;15.93;11.40;;;15.00;63.90;;;;;;5033670;28;20025;-65
2024/03/08 08:31:51;;;;;;;16.05;11.65;;;15.10;64.00;;;;;;5032889;28;20028;-64
2024/03/08 08:34:19;;;;;;;14.10;11.18;;;15.20;64.10;;;;;;5033512;28;20128;-65
2024/03/08 08:36:45;;;;;;;18.30;10.02;;;15.40;64.00;;;;;;5033409;28;20029;-65
2024/03/08 08:39:13;;;;;;;16.60;11.27;;;15.50;64.00;;;;;;5033091;28;20029;-65
2024/03/08 08:41:42;;;;;;;15.48;10.10;;;15.60;63.80;;;;;;5032300;28;20026;-64
2024/03/08 08:44:12;;;;;;;16.65;10.18;;;15.70;63.80;;;;;;5033241;28;20396;-65
2024/03/08 08:46:38;;;;;;;15.65;10.90;;;15.80;63.60;;;;;;5033849;28;20441;-65
2024/03/08 08:49:10;;;;;;;12.55;9.55;;;16.00;63.50;;;;;;5033528;28;20091;-65
2024/03/08 08:51:36;;;;;;;12.75;9.73;;;16.00;63.50;;;;;;5032716;28;20025;-65
2024/03/08 08:54:02;;;;;;;15.25;10.15;;;16.10;63.40;;;;;;5033329;28;20089;-66
2024/03/08 08:56:28;;;;;;;12.73;10.02;;;16.20;63.30;;;;;;5033193;28;20177;-65
2024/03/08 08:58:54;;;;;;;13.15;9.43;;;16.20;63.30;;;;;;5032981;28;20029;-64
2024/03/08 09:01:20;;;;;;;12.55;9.55;;;16.30;63.30;;;;;;5032554;28;20075;-65
2024/03/08 09:03:50;;;;;;;13.45;9.15;;;16.40;63.30;;;;;;5032803;28;20032;-65
2024/03/08 09:06:16;;;;;;;13.45;9.38;;;16.50;63.20;;;;;;5032982;28;20034;-64
2024/03/08 09:08:43;;;;;;;13.73;9.45;;;16.50;63.30;;;;;;5032575;28;20084;-64
2024/03/08 09:11:10;;;;;;;13.88;9.27;;;16.50;63.30;;;;;;5031386;28;20033;-64
2024/03/08 09:13:36;;;;;;;9.98;7.97;;;16.60;63.30;;;;;;5032777;28;20026;-65
2024/03/08 09:16:02;;;;;;;15.32;8.68;;;16.60;63.20;;;;;;5033009;28;20032;-64
2024/03/08 09:18:29;;;;;;;12.20;8.25;;;16.70;63.20;;;;;;5032851;28;20039;-65
2024/03/08 09:20:54;;;;;;;9.23;7.60;;;16.70;63.20;;;;;;5031896;28;20053;-62
2024/03/08 09:23:20;;;;;;;13.93;8.38;;;16.80;63.30;;;;;;5032785;28;20540;-65
2024/03/08 09:25:46;;;;;;;10.85;8.18;;;16.80;63.40;;;;;;5032369;28;20026;-66
2024/03/08 09:28:12;;;;;;;10.68;8.48;;;16.80;63.40;;;;;;5032441;28;20104;-66
2024/03/08 09:30:38;;;;;;;12.52;7.85;;;16.90;63.40;;;;;;5031881;28;20025;-65
2024/03/08 09:33:05;;;;;;;11.85;7.90;;;16.90;63.50;;;;;;5031620;28;20064;-65
2024/03/08 09:35:31;;;;;;;9.73;7.50;;;16.90;63.50;;;;;;5032035;28;20025;-66
2024/03/08 09:37:57;;;;;;;12.55;8.30;;;17.00;63.60;;;;;;5032061;28;20037;-65
2024/03/08 09:40:25;;;;;;;9.63;7.53;;;17.00;63.60;;;;;;5032133;28;20060;-68
2024/03/08 09:42:52;;;;;;;9.30;6.97;;;17.00;63.60;;;;;;5031629;28;20120;-65
2024/03/08 09:45:22;;;;;;;17.00;7.97;;;17.10;63.70;;;;;;5032016;28;20093;-65
2024/03/08 09:47:48;;;;;;;8.18;7.10;;;17.10;63.70;;;;;;5031881;28;20056;-65
2024/03/08 09:50:17;;;;;;;10.00;7.55;;;17.10;63.80;;;;;;5032155;28;20052;-65
2024/03/08 09:52:46;;;;;;;9.13;7.13;;;17.20;63.70;;;;;;5030873;28;20025;-65
2024/03/08 09:55:12;;;;;;;10.82;7.20;;;17.10;63.80;;;;;;5032046;28;20037;-65
2024/03/08 09:57:39;;;;;;;12.60;8.15;;;17.20;64.00;;;;;;5031335;28;20041;-64
2024/03/08 10:00:24;;;;;;;11.85;7.88;;;17.20;64.00;;;;;;5031437;28;20022;-64
2024/03/08 10:02:53;;;;;;;11.82;7.20;;;17.20;64.20;;;;;;5031012;28;20025;-64
2024/03/08 10:05:19;;;;;;;11.77;7.47;;;17.20;64.30;;;;;;5031277;28;20448;-64
2024/03/08 10:07:45;;;;;;;14.25;8.32;;;17.30;64.20;;;;;;5031147;28;20055;-64
2024/03/08 10:10:12;;;;;;;9.15;7.25;;;17.30;64.30;;;;;;5031584;28;20499;-64
2024/03/08 10:12:39;;;;;;;11.55;7.43;;;17.30;64.30;;;;;;5010086;28;20167;-64
2024/03/08 10:15:08;;;;;;;10.70;7.15;;;17.40;64.30;;;;;;5011781;28;20398;-64
2024/03/08 10:17:35;;;;;;;10.63;7.15;;;17.40;64.40;;;;;;5011266;28;20026;-64
2024/03/08 10:20:02;;;;;;;12.70;7.43;;;17.40;64.40;;;;;;5028946;28;20397;-62
2024/03/08 10:22:29;;;;;;;10.32;6.93;;;17.50;64.50;;;;;;5030212;28;20024;-64
2024/03/08 10:24:55;;;;;;;9.95;6.95;;;17.50;64.40;;;;;;5030826;28;20100;-65
2024/03/08 10:27:20;;;;;;;10.68;7.07;;;17.50;64.50;;;;;;5030982;28;20100;-65
2024/03/08 10:29:51;;;;;;;11.13;6.75;;;17.50;64.50;;;;;;5030851;28;20029;-64
2024/03/08 10:32:17;;;;;;;10.88;7.18;;;17.50;64.40;;;;;;5030492;28;20124;-65
2024/03/08 10:34:42;;;;;;;9.20;7.40;;;17.50;64.40;;;;;;5030712;28;20033;-65
2024/03/08 10:37:18;;;;;;;8.93;6.75;;;17.50;64.30;;;;;;5030653;28;20385;-65
2024/03/08 10:39:49;;;;;;;9.88;7.07;;;17.60;64.40;;;;;;5030842;28;20047;-63
2024/03/08 10:42:19;;;;;;;9.65;6.45;;;17.60;64.30;;;;;;5029995;28;20523;-64
2024/03/08 10:45:02;;;;;;;9.75;6.72;;;17.60;64.30;;;;;;5030987;28;20030;-65
2024/03/08 10:47:30;;;;;;;9.38;7.45;;;17.70;64.30;;;;;;5030988;28;20021;-64
2024/03/08 10:50:25;;;;;;;8.45;6.00;;;17.70;64.30;;;;;;5030499;28;20089;-64
2024/03/08 10:52:51;;;;;;;10.95;6.70;;;17.70;64.30;;;;;;5030263;28;20041;-66
2024/03/08 10:55:20;;;;;;;8.90;6.47;;;17.70;64.40;;;;;;5030454;28;20049;-65
2024/03/08 10:57:49;;;;;;;9.45;6.68;;;17.70;64.50;;;;;;5030798;28;20030;-65
2024/03/08 11:00:16;;;;;;;13.80;6.80;;;17.70;64.60;;;;;;5030908;28;20383;-65
2024/03/08 11:02:45;;;;;;;12.43;6.57;;;17.70;64.70;;;;;;5030044;28;20394;-67
2024/03/08 11:05:32;;;;;;;11.00;6.57;;;17.80;64.80;;;;;;5030473;28;20024;-66
2024/03/08 11:07:58;;;;;;;9.48;6.63;;;17.80;65.10;;;;;;5030479;28;20506;-66
2024/03/08 11:10:24;;;;;;;10.77;6.70;;;17.80;65.10;;;;;;5030302;28;20083;-63
2024/03/08 11:12:49;;;;;;;9.88;6.38;;;17.80;65.10;;;;;;5029723;28;20420;-66
2024/03/08 11:15:18;;;;;;;12.27;6.53;;;17.80;65.30;;;;;;5028856;28;20021;-65
2024/03/08 11:17:50;;;;;;;14.02;6.65;;;17.80;65.40;;;;;;5030244;28;20026;-65
2024/03/08 11:20:17;;;;;;;11.57;6.30;;;;;;;;;;5030145;28;20022;-65
2024/03/08 11:22:51;;;;;;;8.98;5.95;;;;;;;;;;5030568;28;20033;-66
2024/03/08 11:25:41;;;;;;;14.13;6.60;;;;;;;;;;5030217;28;20029;-66
2024/03/08 11:28:08;;;;;;;10.05;6.13;;;;;;;;;;5030730;28;20108;-65
2024/03/08 11:30:34;;;;;;;9.18;6.22;;;;;;;;;;5029982;28;20485;-65
2024/03/08 11:33:03;;;;;;;8.82;6.70;;;;;;;;;;5030795;28;20072;-64
2024/03/08 11:35:29;;;;;;;9.45;6.63;;;;;;;;;;5031776;28;20116;-65
2024/03/08 11:38:00;;;;;;;11.45;6.45;;;;;;;;;;5034551;28;20029;-64
2024/03/08 11:40:26;;;;;;;8.95;6.55;;;;;;;;;;5033991;28;20014;-62
2024/03/08 11:42:52;;;;;;;10.00;6.03;;;;;;;;;;5032948;28;20104;-64
2024/03/08 11:45:21;;;;;;;6.95;5.78;;;;;;;;;;5015598;28;20113;-63
2024/03/08 11:47:47;;;;;;;10.85;6.43;;;;;;;;;;5034842;28;20045;-64
2024/03/08 11:50:13;;;;;;;9.30;6.47;;;;;;;;;;5033831;28;20029;-63
2024/03/08 11:52:40;;;;;;;7.32;5.35;;;;;;;;;;5033678;28;20501;-63
2024/03/08 11:55:06;;;;;;;7.95;5.82;;;;;;;;;;5034893;28;20029;-63
2024/03/08 11:57:32;;;;;;;13.43;6.15;;;;;;;;;;5034448;28;20036;-64
2024/03/08 12:00:06;;;;;;;7.10;5.43;;;;;;;;;;5034231;28;20026;-63
2024/03/08 12:02:35;;;;;;;8.15;5.95;;;;;;;;;;5034002;28;20079;-63
2024/03/08 12:05:06;;;;;;;11.57;6.38;;;;;;;;;;5034680;28;20021;-63
2024/03/08 12:07:35;;;;;;;7.70;5.95;;;;;;;;;;5034414;28;20080;-64
2024/03/08 12:10:21;;;;;;;8.65;5.85;;;;;;;;;;5034200;28;20021;-64
2024/03/08 12:12:51;;;;;;;9.23;6.03;;;;;;;;;;5033654;28;20034;-63
2024/03/08 12:15:17;;;;;;;8.27;6.10;;;;;;;;;;5034375;28;20060;-63
2024/03/08 12:17:44;;;;;;;9.27;5.95;;;;;;;;;;5034306;28;20040;-63
2024/03/08 12:20:24;;;;;;;8.13;5.47;;;;;;;;;;5033780;28;20022;-63
2024/03/08 12:22:56;;;;;;;7.75;5.40;;;;;;;;;;5033550;28;20025;-64
2024/03/08 12:25:22;;;;;;;7.68;5.53;;;;;;;;;;5033943;28;20033;-63
2024/03/08 12:27:48;;;;;;;8.32;5.45;;;;;;;;;;5033938;28;20052;-62
2024/03/08 12:30:21;;;;;;;7.63;5.68;;;;;;;;;;5033579;28;20021;-65
2024/03/08 12:33:10;;;;;;;9.70;6.15;;;;;;;;;;5032886;28;20036;-63
2024/03/08 12:35:37;;;;;;;8.18;5.03;;;;;;;;;;5033444;28;20049;-61
2024/03/08 12:38:03;;;;;;;9.65;5.80;;;;;;;;;;5033376;28;20048;-62
2024/03/08 12:40:29;;;;;;;7.90;5.40;;;;;;;;;;5033105;28;20475;-62
2024/03/08 12:42:56;;;;;;;7.25;5.45;;;;;;;;;;5032959;28;20018;-64
2024/03/08 12:45:23;;;;;;;14.70;5.70;;;;;;;;;;5033378;28;20473;-64
2024/03/08 12:47:50;;;;;;;8.82;5.55;;;;;;;;;;5033281;28;20438;-63